createdAt,value
2022-11-07T00:02:00.194Z,21.23
2022-11-07T00:07:03.234Z,20.60
2022-11-07T00:12:06.218Z,20.77
2022-11-07T00:17:09.424Z,19.93
2022-11-07T00:22:11.749Z,19.87
2022-11-07T00:27:14.205Z,20.43
2022-11-07T00:32:16.736Z,21.03
2022-11-07T00:37:19.143Z,22.63
2022-11-07T00:42:21.699Z,21.67
2022-11-07T00:47:24.234Z,21.20
2022-11-07T00:52:26.729Z,21.47
2022-11-07T00:57:29.175Z,20.30
2022-11-07T01:02:32.000Z,21.67
2022-11-07T01:07:34.610Z,22.50
2022-11-07T01:12:37.043Z,23.50
2022-11-07T01:17:39.528Z,25.10
2022-11-07T01:22:42.320Z,23.97
2022-11-07T01:27:44.836Z,23.93
2022-11-07T01:32:47.364Z,26.40
2022-11-07T01:37:49.787Z,25.13
2022-11-07T01:42:52.191Z,28.00
2022-11-07T01:47:58.905Z,29.23
2022-11-07T01:53:01.479Z,31.00
2022-11-07T01:58:08.416Z,29.00
2022-11-07T02:03:15.097Z,30.63
2022-11-07T02:08:18.280Z,32.17
2022-11-07T02:13:27.192Z,30.73
2022-11-07T02:18:30.510Z,33.37
2022-11-07T02:23:45.541Z,32.17
2022-11-07T02:28:49.321Z,30.93
2022-11-07T02:33:51.867Z,31.83
2022-11-07T02:38:58.872Z,32.73
2022-11-07T02:44:07.029Z,32.17
2022-11-07T02:49:09.513Z,32.70
2022-11-07T02:54:11.965Z,33.27
2022-11-07T02:59:14.359Z,32.87
2022-11-07T03:04:16.850Z,31.23
2022-11-07T03:09:19.311Z,31.23
2022-11-07T03:14:21.729Z,32.40
2022-11-07T03:19:24.206Z,32.07
2022-11-07T03:24:27.781Z,32.10
2022-11-07T03:29:30.266Z,31.47
2022-11-07T03:34:32.649Z,33.17
2022-11-07T03:39:35.070Z,32.00
2022-11-07T03:44:37.539Z,31.13
2022-11-07T03:49:40.017Z,31.30
2022-11-07T03:54:42.413Z,32.50
2022-11-07T03:59:44.828Z,33.17
2022-11-07T04:04:47.255Z,32.53
2022-11-07T04:09:49.735Z,30.90
2022-11-07T04:15:11.387Z,30.00
2022-11-07T04:20:13.780Z,31.07
2022-11-07T04:25:16.303Z,29.97
2022-11-07T04:30:19.434Z,31.43
2022-11-07T04:35:25.073Z,30.67
2022-11-07T04:40:28.594Z,30.37
2022-11-07T04:45:31.029Z,32.07
2022-11-07T04:50:33.573Z,29.70
2022-11-07T04:55:36.003Z,28.50
2022-11-07T05:00:38.408Z,29.37
2022-11-07T05:05:40.927Z,29.60
2022-11-07T05:10:43.757Z,31.17
2022-11-07T05:15:46.798Z,30.63
2022-11-07T05:20:49.146Z,33.43
2022-11-07T05:25:53.080Z,39.43
2022-11-07T05:31:01.905Z,34.50
2022-11-07T05:36:19.159Z,32.43
2022-11-07T05:41:22.433Z,31.77
2022-11-07T05:46:24.861Z,34.93
2022-11-07T05:51:27.305Z,21.63
2022-11-07T05:56:38.609Z,32.40
2022-11-07T06:01:44.044Z,33.27
2022-11-07T06:06:48.833Z,34.57
2022-11-07T06:11:51.716Z,31.17
2022-11-07T06:16:54.456Z,31.30
2022-11-07T06:22:21.900Z,30.43
2022-11-07T06:27:22.545Z,39.43
2022-11-07T06:32:26.059Z,38.47
2022-11-07T06:37:29.510Z,37.13
2022-11-07T06:42:32.895Z,31.70
2022-11-07T06:47:37.552Z,31.73
2022-11-07T06:52:42.429Z,35.50
2022-11-07T06:57:49.533Z,34.93
2022-11-07T07:02:58.393Z,35.07
2022-11-07T07:08:07.450Z,31.03
2022-11-07T07:13:11.550Z,32.40
2022-11-07T07:18:14.820Z,33.43
2022-11-07T07:23:21.395Z,31.90
2022-11-07T07:28:24.024Z,29.67
2022-11-07T07:33:26.545Z,29.90
2022-11-07T07:38:28.944Z,34.00
2022-11-07T07:43:31.546Z,30.57
2022-11-07T07:48:34.874Z,28.90
2022-11-07T07:53:40.844Z,25.53
2022-11-07T07:58:44.643Z,29.13
2022-11-07T08:04:01.307Z,26.17
2022-11-07T08:09:05.511Z,21.77
2022-11-07T08:14:08.714Z,21.87
2022-11-07T08:19:11.431Z,18.80
2022-11-07T08:24:13.908Z,30.93
2022-11-07T08:29:16.343Z,17.13
2022-11-07T08:34:18.826Z,15.17
2022-11-07T08:39:21.283Z,18.03
2022-11-07T08:44:24.637Z,17.00
2022-11-07T08:49:27.433Z,17.27
2022-11-07T08:54:30.093Z,19.73
2022-11-07T08:59:32.681Z,22.83
2022-11-07T09:04:35.600Z,22.57
2022-11-07T09:09:38.068Z,18.50
2022-11-07T09:14:40.508Z,12.90
2022-11-07T09:19:42.845Z,19.50
2022-11-07T09:24:45.751Z,8.70
2022-11-07T09:29:48.375Z,14.37
2022-11-07T09:34:58.122Z,15.60
2022-11-07T09:40:04.124Z,15.13
2022-11-07T09:45:13.266Z,11.00
2022-11-07T09:50:38.738Z,15.87
2022-11-07T09:55:52.925Z,13.13
2022-11-07T10:01:00.016Z,12.40
2022-11-07T10:06:24.905Z,14.53
2022-11-07T10:11:41.265Z,15.43
2022-11-07T10:17:22.212Z,14.70
2022-11-07T10:22:41.975Z,12.97
2022-11-07T10:27:47.605Z,8.53
2022-11-07T10:33:07.622Z,9.57
2022-11-07T10:38:22.114Z,11.23
2022-11-07T10:43:37.852Z,11.00
2022-11-07T10:49:00.353Z,12.17
2022-11-07T10:54:02.939Z,12.43
2022-11-07T10:59:13.519Z,8.63
2022-11-07T11:04:27.674Z,9.13
2022-11-07T11:09:35.717Z,8.47
2022-11-07T11:14:38.735Z,11.43
2022-11-07T11:19:51.542Z,10.30
2022-11-07T11:25:19.471Z,12.07
2022-11-07T11:30:22.698Z,9.47
2022-11-07T11:35:30.983Z,9.50
2022-11-07T11:40:39.498Z,8.20
2022-11-07T11:45:53.394Z,10.00
2022-11-07T11:51:20.347Z,11.27
2022-11-07T11:56:25.618Z,9.93
2022-11-07T12:02:03.532Z,7.63
2022-11-07T12:07:17.787Z,9.67
2022-11-07T12:12:54.139Z,6.47
2022-11-07T12:18:18.570Z,7.27
2022-11-07T12:23:38.718Z,6.83
2022-11-07T12:28:50.670Z,6.67
2022-11-07T12:34:14.830Z,6.87
2022-11-07T12:39:32.310Z,6.80
2022-11-07T12:45:25.999Z,7.17
2022-11-07T12:50:43.751Z,7.80
2022-11-07T12:55:57.836Z,8.03
2022-11-07T13:01:01.856Z,5.63
2022-11-07T13:06:04.438Z,5.83
2022-11-07T13:11:33.733Z,8.53
2022-11-07T13:16:37.370Z,8.93
2022-11-07T13:21:43.920Z,9.47
2022-11-07T13:26:47.982Z,7.63
2022-11-07T13:32:06.079Z,7.63
2022-11-07T13:37:16.417Z,10.53
2022-11-07T13:42:20.750Z,10.43
2022-11-07T13:47:30.961Z,9.90
2022-11-07T13:52:41.640Z,10.43
2022-11-07T13:57:52.493Z,9.07
2022-11-07T14:02:57.459Z,7.70
2022-11-07T14:08:07.308Z,7.50
2022-11-07T14:13:22.306Z,8.70
2022-11-07T14:18:28.434Z,8.83
2022-11-07T14:23:33.122Z,10.30
2022-11-07T14:28:38.113Z,10.37
2022-11-07T14:33:49.403Z,11.00
2022-11-07T14:38:54.948Z,10.37
2022-11-07T14:44:02.689Z,12.83
2022-11-07T14:49:06.897Z,13.23
2022-11-07T14:54:18.293Z,13.50
2022-11-07T14:59:24.366Z,13.87
2022-11-07T15:04:39.504Z,15.37
2022-11-07T15:09:41.928Z,14.37
2022-11-07T15:14:45.274Z,16.07
2022-11-07T15:20:02.381Z,13.27
2022-11-07T15:25:28.434Z,19.37
2022-11-07T15:30:33.932Z,15.57
2022-11-07T15:35:44.197Z,13.13
2022-11-07T15:40:48.303Z,11.70
2022-11-07T15:45:52.909Z,12.33
2022-11-07T15:50:55.816Z,17.50
2022-11-07T15:56:00.688Z,17.60
2022-11-07T16:01:03.577Z,14.30
2022-11-07T16:06:30.728Z,12.60
2022-11-07T16:11:33.013Z,14.03
2022-11-07T16:16:35.720Z,14.73
2022-11-07T16:21:38.201Z,14.73
2022-11-07T16:26:40.802Z,16.47
2022-11-07T16:31:43.437Z,14.27
2022-11-07T16:36:47.393Z,12.30
2022-11-07T16:41:50.517Z,14.07
2022-11-07T16:46:55.466Z,13.03
2022-11-07T16:51:58.551Z,15.17
2022-11-07T16:57:01.792Z,17.53
2022-11-07T17:02:13.133Z,16.67
2022-11-07T17:07:19.118Z,14.10
2022-11-07T17:12:22.671Z,15.73
2022-11-07T17:17:25.063Z,15.73
2022-11-07T17:22:27.574Z,17.77
2022-11-07T17:27:30.599Z,21.20
2022-11-07T17:32:32.997Z,22.63
2022-11-07T17:37:35.696Z,23.33
2022-11-07T17:42:39.300Z,25.10
2022-11-07T17:47:41.691Z,26.90
2022-11-07T17:52:44.181Z,26.30
2022-11-07T17:57:46.723Z,21.67
2022-11-07T18:02:51.138Z,17.97
2022-11-07T18:07:54.023Z,18.53
2022-11-07T18:12:57.727Z,18.97
2022-11-07T18:18:00.199Z,24.63
2022-11-07T18:23:02.743Z,24.77
2022-11-07T18:28:06.294Z,27.00
2022-11-07T18:33:09.217Z,27.87
2022-11-07T18:38:11.739Z,24.43
2022-11-07T18:43:14.180Z,23.53
2022-11-07T18:48:17.852Z,23.50
2022-11-07T18:53:20.623Z,20.80
2022-11-07T18:58:23.148Z,20.90
2022-11-07T19:03:25.561Z,19.67
2022-11-07T19:08:29.839Z,18.90
2022-11-07T19:13:35.024Z,21.73
2022-11-07T19:18:37.809Z,19.83
2022-11-07T19:23:40.662Z,21.73
2022-11-07T19:28:43.217Z,24.67
2022-11-07T19:33:45.730Z,19.90
2022-11-07T19:38:48.834Z,20.73
2022-11-07T19:43:51.324Z,20.07
2022-11-07T19:48:55.695Z,22.67
2022-11-07T19:54:00.451Z,20.60
2022-11-07T19:59:03.103Z,21.63
2022-11-07T20:04:05.940Z,20.10
2022-11-07T20:09:11.619Z,21.00
2022-11-07T20:14:14.323Z,19.80
2022-11-07T20:19:16.918Z,20.30
2022-11-07T20:24:19.416Z,19.17
2022-11-07T20:29:23.028Z,20.53
2022-11-07T20:34:25.594Z,21.47
2022-11-07T20:39:28.054Z,20.60
2022-11-07T20:44:30.535Z,20.03
2022-11-07T20:49:33.103Z,16.67
2022-11-07T20:54:36.305Z,19.63
2022-11-07T20:59:41.456Z,18.90
2022-11-07T21:05:11.153Z,17.43
2022-11-07T21:10:06.891Z,17.53
2022-11-07T21:15:10.484Z,18.57
2022-11-07T21:20:13.323Z,16.80
2022-11-07T21:25:16.952Z,16.67
2022-11-07T21:30:19.952Z,15.20
2022-11-07T21:35:23.862Z,16.40
2022-11-07T21:40:26.303Z,15.50
2022-11-07T21:45:28.907Z,16.17
2022-11-07T21:50:44.183Z,13.60
2022-11-07T21:55:47.530Z,15.93
2022-11-07T22:00:50.257Z,14.67
2022-11-07T22:05:52.989Z,13.70
2022-11-07T22:10:55.424Z,13.37
2022-11-07T22:16:19.273Z,12.00
2022-11-07T22:21:23.239Z,11.77
2022-11-07T22:26:27.755Z,11.33
2022-11-07T22:31:31.769Z,10.93
2022-11-07T22:36:34.265Z,11.90
2022-11-07T22:41:36.808Z,10.53
2022-11-07T22:46:39.748Z,11.80
2022-11-07T22:51:42.278Z,10.60
2022-11-07T22:56:44.587Z,10.23
2022-11-07T23:01:47.146Z,9.97
2022-11-07T23:06:49.625Z,9.90
2022-11-07T23:11:52.033Z,11.53
2022-11-07T23:16:55.634Z,9.13
2022-11-07T23:21:58.118Z,9.00
2022-11-07T23:27:00.870Z,9.57
2022-11-07T23:32:03.156Z,8.13
2022-11-07T23:37:13.980Z,10.03
2022-11-07T23:42:16.574Z,8.50
2022-11-07T23:47:38.141Z,8.83
2022-11-07T23:52:40.600Z,7.30
2022-11-07T23:58:02.378Z,8.80
